ZTL Weather Bulletin
Prepared: 5/5/2015 8:10 PM by: WN valid for 9 hours
FOR ATC PLANNING PURPOSES
High pressure over the Atlantic will continue to dominate the airspace as a developing Low off the SE FL coast slowly moves north. Little to no impact from this low is expected tonight, other than an increase in upper-level cirrus over E ZTL. Expect VFR conditions over all of ZTL. Surface winds will be east to southeast at 5kts and frequently calm. Flight Hazards: None Expected. Altimeters will be above 29.92ins over all of ZTL. Ceilings below 050 are not expected in ZTL Areas.

Restricted Area Convection: R2102...none. R3002...none. R3004...none.
FTUS80 KATL 060145 AAA
KATL 060142Z 0602/0706 13005KT P6SM SKC
     FM061500 08010KT P6SM FEW050
     FM061900 10010KT P6SM FEW050
Remark: NONE.
FTUS42 KGSP 052320
TAFCLT
TAF
KCLT 052320Z 0600/0624 17009KT P6SM FEW060
     FM060300 17003KT P6SM FEW250
     FM061400 08003KT P6SM FEW250
     FM061800 08007G12KT P6SM FEW250=

Remark: NONE.
12-18 Hour Forecast Map
Weather Map
Convective Gate Forecast
Convective Gate Forecast


USA.gov is the U.S. government's official web portal to all federal, state and local government web resources and services.